Time;durP1;ratioP1;P1;durP2;ratioP2;P2;SDS_P1;SDS_P2;PMS_P1;PMS_P2;Temp;Humidity;BMP_temperature;BMP_pressure;BME280_temperature;BME280_humidity;BME280_pressure;Samples;Min_cycle;Max_cycle;Signal;HPM_P1;HPM_P2
2022/01/12 00:01:35;;;;;;;19.8;11.4;;;;;;;-4.14;88.87012;951.866;;;;
2022/01/12 00:04:11;;;;;;;19.6;10.8;;;;;;;-4.14;88.39551;951.8773;;;;
2022/01/12 00:06:47;;;;;;;9.4;5.1;;;;;;;-4.28;89.10547;951.8503;;;;
2022/01/12 00:09:16;;;;;;;9.4;4.9;;;;;;;-4.28;89.08398;951.8845;;;;
2022/01/12 00:11:47;;;;;;;16.5;11.7;;;;;;;-4.04;88.16309;951.8588;;;;
2022/01/12 00:14:12;;;;;;;27.8;20.4;;;;;;;-4.17;88.24609;951.9194;;;;
2022/01/12 00:16:47;;;;;;;24.3;15.6;;;;;;;-4.5;89.77539;951.9275;;;;
2022/01/12 00:19:09;;;;;;;9.3;5.8;;;;;;;-4.53;89.92188;951.8632;;;;
2022/01/12 00:21:42;;;;;;;32.4;22.2;;;;;;;-4.22;89.35938;951.9038;;;;
2022/01/12 00:24:13;;;;;;;10.5;7.5;;;;;;;-4.06;88.75488;951.8994;;;;
2022/01/12 00:33:08;;;;;;;18;13.6;;;;;;;-3.89;87.86426;952.0156;;;;
2022/01/12 00:33:57;;;;;;;8.4;5.9;;;;;;;-4.14;87.85547;951.9391;;;;
2022/01/12 00:36:21;;;;;;;7.3;4.9;;;;;;;-4.08;87.83496;952.0402;;;;
2022/01/12 00:38:47;;;;;;;8.1;5.6;;;;;;;-4.11;87.77246;952.0075;;;;
2022/01/12 00:41:30;;;;;;;9.5;5.8;;;;;;;-4.2;87.67676;951.9681;;;;
2022/01/12 00:43:59;;;;;;;95.8;38.3;;;;;;;-4.12;87.39551;951.9658;;;;
2022/01/12 00:46:21;;;;;;;12.5;5.9;;;;;;;-4.22;87.55078;952.0376;;;;
2022/01/12 00:48:46;;;;;;;12.6;6.8;;;;;;;-4.1;86.54102;952.0183;;;;
2022/01/12 00:51:12;;;;;;;14;7.3;;;;;;;-4.17;86.7793;952.1484;;;;
2022/01/12 00:53:37;;;;;;;9.3;5.3;;;;;;;-4.09;85.78125;952.1172;;;;
2022/01/12 00:56:03;;;;;;;5.2;3.4;;;;;;;-4.14;84.45801;952.1848;;;;
2022/01/12 00:58:29;;;;;;;4.7;3.2;;;;;;;-4.13;84.32715;952.2371;;;;
2022/01/12 01:00:55;;;;;;;4.3;3.1;;;;;;;-4.12;83.67969;952.253;;;;
2022/01/12 01:03:28;;;;;;;700.5;325.3;;;;;;;-4.15;83.82715;952.3038;;;;
2022/01/12 01:05:55;;;;;;;13.1;6.8;;;;;;;-4.3;85.33105;952.3072;;;;
2022/01/12 01:08:34;;;;;;;12.4;6;;;;;;;-4.26;86.27344;952.3212;;;;
2022/01/12 01:10:59;;;;;;;8.8;5.6;;;;;;;-4.3;86.26758;952.3181;;;;
2022/01/12 01:13:26;;;;;;;10.9;6.7;;;;;;;-4.39;86.80957;952.3066;;;;
2022/01/12 01:16:27;;;;;;;9.9;5.8;;;;;;;-4.67;87.54492;952.3192;;;;
2022/01/12 01:25:37;;;;;;;9.4;6.3;;;;;;;-4.5;86.67676;952.3177;;;;
2022/01/12 01:28:02;;;;;;;11;5.9;;;;;;;-4.58;86.96875;952.3101;;;;
2022/01/12 01:30:27;;;;;;;15.5;9.1;;;;;;;-4.54;86.64746;952.3546;;;;
2022/01/12 01:32:53;;;;;;;8.9;5.5;;;;;;;-5.13;88.27344;952.4514;;;;
2022/01/12 01:35:26;;;;;;;10.1;5.1;;;;;;;-5.11;88.66406;952.3998;;;;
2022/01/12 01:37:54;;;;;;;9.3;4.9;;;;;;;-5.03;88.4707;952.3793;;;;
2022/01/12 01:40:20;;;;;;;6.3;4.6;;;;;;;-5.16;88.8291;952.3228;;;;
2022/01/12 01:43:08;;;;;;;15.8;9;;;;;;;-5.02;88.46094;952.4885;;;;
2022/01/12 01:55:01;;;;;;;8.4;4.8;;;;;;;-5.19;88.88867;952.4856;;;;
2022/01/12 01:57:27;;;;;;;7.7;4.4;;;;;;;-5.48;89.5752;952.5162;;;;
2022/01/12 01:59:53;;;;;;;8;4.5;;;;;;;-5.37;88.81934;952.4983;;;;
2022/01/12 02:02:19;;;;;;;5.8;4;;;;;;;-5.41;88.28027;952.459;;;;
2022/01/12 02:04:47;;;;;;;5.9;4;;;;;;;-5.54;88.29688;952.4045;;;;
2022/01/12 02:07:14;;;;;;;7.4;3.6;;;;;;;-5.41;87.54297;952.4596;;;;
2022/01/12 02:09:37;;;;;;;5;3.7;;;;;;;-5.35;87.21582;952.4583;;;;
2022/01/12 02:12:05;;;;;;;6.3;3.9;;;;;;;-5.67;87.36914;952.4738;;;;
2022/01/12 02:14:31;;;;;;;5.7;3.6;;;;;;;-5.94;88.75098;952.4954;;;;
2022/01/12 02:17:05;;;;;;;7.2;3.6;;;;;;;-6.07;89.08691;952.459;;;;
2022/01/12 02:19:56;;;;;;;6.4;4;;;;;;;-6.09;89.10059;952.499;;;;
2022/01/12 02:36:28;;;;;;;5;3.4;;;;;;;-6.25;90.12109;952.4782;;;;
2022/01/12 02:41:15;;;;;;;5.2;3.5;;;;;;;-6.25;89.86914;952.4297;;;;
2022/01/12 02:50:37;;;;;;;5.2;3.1;;;;;;;-6.2;89.8584;952.4306;;;;
2022/01/12 02:51:09;;;;;;;4.8;3.5;;;;;;;-6.21;89.5625;952.3627;;;;
2022/01/12 02:55:46;;;;;;;6.3;3.6;;;;;;;-6.27;89.53613;952.375;;;;
2022/01/12 02:58:11;;;;;;;5.4;3.3;;;;;;;-6.24;89.23438;952.318;;;;
2022/01/12 03:00:56;;;;;;;6.1;3.7;;;;;;;-6.28;89.37988;952.3312;;;;
2022/01/12 03:03:04;;;;;;;5.8;3.4;;;;;;;-6.41;89.48438;952.3721;;;;
2022/01/12 03:05:45;;;;;;;8;4.2;;;;;;;-6.45;89.63965;952.3621;;;;
2022/01/12 03:08:02;;;;;;;6.3;3.8;;;;;;;-6.48;89.70996;952.3654;;;;
2022/01/12 03:10:25;;;;;;;6.1;3.7;;;;;;;-6.33;89.06152;952.3414;;;;
2022/01/12 03:12:50;;;;;;;5.3;3.9;;;;;;;-6.21;88.15527;952.2413;;;;
2022/01/12 03:15:17;;;;;;;6.5;3.6;;;;;;;-6.26;87.77246;952.3858;;;;
2022/01/12 03:17:45;;;;;;;8;4.1;;;;;;;-6.72;89.39648;952.3568;;;;
2022/01/12 03:20:13;;;;;;;6.4;4.3;;;;;;;-6.81;89.48633;952.2634;;;;
2022/01/12 03:22:42;;;;;;;6.1;3.9;;;;;;;-6.69;89.3916;952.3432;;;;
2022/01/12 03:25:07;;;;;;;5.2;3.5;;;;;;;-6.68;89.60156;952.435;;;;
2022/01/12 03:27:32;;;;;;;5.4;3.6;;;;;;;-6.58;90.16016;952.3681;;;;
2022/01/12 03:30:01;;;;;;;5.7;3.2;;;;;;;-6.59;90.21387;952.488;;;;
2022/01/12 03:32:34;;;;;;;5.2;3.7;;;;;;;-6.38;89.16113;952.4497;;;;
2022/01/12 03:35:06;;;;;;;4.4;3.1;;;;;;;-6.27;88.72363;952.4396;;;;
2022/01/12 03:37:39;;;;;;;6.8;3.4;;;;;;;-6.38;88.62402;952.4512;;;;
2022/01/12 03:39:42;;;;;;;5.5;3;;;;;;;-6.51;88.39941;952.4622;;;;
2022/01/12 03:42:13;;;;;;;4.1;3.2;;;;;;;-6.56;88.4541;952.4533;;;;
2022/01/12 03:44:41;;;;;;;6.4;3.5;;;;;;;-6.49;88.40527;952.3995;;;;
2022/01/12 03:47:11;;;;;;;6.6;3.6;;;;;;;-6.53;89.0293;952.3694;;;;
2022/01/12 03:49:41;;;;;;;5.3;3.4;;;;;;;-6.61;88.99219;952.4385;;;;
2022/01/12 03:52:06;;;;;;;9.3;4.8;;;;;;;-6.7;90.03418;952.4295;;;;
2022/01/12 03:54:37;;;;;;;8.5;4.5;;;;;;;-6.67;89.7793;952.4164;;;;
2022/01/12 03:57:08;;;;;;;10;4.5;;;;;;;-6.32;88.93359;952.4389;;;;
2022/01/12 03:59:37;;;;;;;7.9;4.8;;;;;;;-6.54;88.77734;952.4969;;;;
2022/01/12 04:02:53;;;;;;;10.9;5.1;;;;;;;-6.81;89.49609;952.4504;;;;
2022/01/12 04:08:18;;;;;;;7.3;4.3;;;;;;;-6.91;89.87988;952.4846;;;;
2022/01/12 04:10:12;;;;;;;7.9;3.9;;;;;;;-6.96;90.56934;952.6406;;;;
2022/01/12 04:12:42;;;;;;;10.3;6.2;;;;;;;-6.86;89.77148;952.6917;;;;
2022/01/12 04:15:07;;;;;;;6;3.7;;;;;;;-6.7;88.89648;952.7011;;;;
2022/01/12 04:17:38;;;;;;;5.5;3.2;;;;;;;-6.73;88.29688;952.741;;;;
2022/01/12 04:20:04;;;;;;;7.6;4;;;;;;;-7.04;89.0752;952.6675;;;;
2022/01/12 04:24:56;;;;;;;8.1;4.4;;;;;;;-7.11;90.14355;952.6863;;;;
2022/01/12 04:27:21;;;;;;;8.8;5;;;;;;;-7.12;90.03223;952.7855;;;;
2022/01/12 04:29:46;;;;;;;7.7;4.6;;;;;;;-7.18;89.66797;952.7672;;;;
2022/01/12 04:32:12;;;;;;;7.5;4.5;;;;;;;-7;89.3457;952.7966;;;;
2022/01/12 04:34:42;;;;;;;6.7;4.2;;;;;;;-6.99;88.51465;952.8369;;;;
2022/01/12 04:37:08;;;;;;;7;4;;;;;;;-7.02;88.82617;952.8201;;;;
2022/01/12 04:39:37;;;;;;;6.4;3.8;;;;;;;-7.1;88.8877;952.8499;;;;
2022/01/12 04:42:02;;;;;;;5.2;4;;;;;;;-7.17;88.61816;952.8419;;;;
2022/01/12 04:44:31;;;;;;;8.3;4.7;;;;;;;-7.3;89.3252;952.9085;;;;
2022/01/12 04:47:05;;;;;;;7.1;4.1;;;;;;;-7.29;89.27246;952.8533;;;;
2022/01/12 04:49:47;;;;;;;6.8;4.1;;;;;;;-7.31;89.5752;952.9519;;;;
2022/01/12 04:51:46;;;;;;;5.4;3.5;;;;;;;-7.41;89.72852;953.0003;;;;
2022/01/12 04:54:12;;;;;;;7.3;3.6;;;;;;;-7.39;89.62305;953.0083;;;;
2022/01/12 04:56:37;;;;;;;6.4;3.6;;;;;;;-7.29;89.11719;953.0106;;;;
2022/01/12 04:59:08;;;;;;;7.1;3.7;;;;;;;-7.21;88.47949;953.0739;;;;
2022/01/12 05:01:49;;;;;;;5.7;3.7;;;;;;;-7.19;88.08887;953.1066;;;;
2022/01/12 05:06:56;;;;;;;7.6;4;;;;;;;-7.36;88.28418;953.1785;;;;
2022/01/12 05:09:14;;;;;;;6.7;4;;;;;;;-7.34;87.95801;953.2531;;;;
2022/01/12 05:13:59;;;;;;;8.3;4.6;;;;;;;-7.56;89.29199;953.1506;;;;
2022/01/12 05:16:25;;;;;;;7.4;4.6;;;;;;;-7.57;90.05469;953.1022;;;;
2022/01/12 05:18:52;;;;;;;7.8;4.9;;;;;;;-7.49;90.7373;953.2109;;;;
2022/01/12 05:21:17;;;;;;;9.6;5;;;;;;;-7.45;90.26563;953.231;;;;
2022/01/12 05:23:45;;;;;;;8;4.7;;;;;;;-7.42;90.22949;953.2416;;;;
2022/01/12 05:26:10;;;;;;;9.9;5.5;;;;;;;-7.42;89.79004;953.1808;;;;
2022/01/12 05:28:39;;;;;;;8.4;5;;;;;;;-7.39;88.87012;953.1671;;;;
2022/01/12 05:31:07;;;;;;;6.7;3.9;;;;;;;-7.6;89.36816;953.2131;;;;
2022/01/12 05:33:33;;;;;;;6.4;4.4;;;;;;;-7.47;89.56152;953.2155;;;;
2022/01/12 05:36:02;;;;;;;7.4;4.4;;;;;;;-7.46;89.43457;953.0938;;;;
2022/01/12 05:38:25;;;;;;;7.3;4.1;;;;;;;-7.45;89.62012;953.135;;;;
2022/01/12 05:40:55;;;;;;;7.1;4.2;;;;;;;-7.51;89.54297;953.1599;;;;
2022/01/12 05:43:24;;;;;;;8.5;5.7;;;;;;;-7.37;90.03418;953.2296;;;;
2022/01/12 05:45:45;;;;;;;6.8;4.1;;;;;;;-7.55;90.22266;953.2841;;;;
2022/01/12 05:50:40;;;;;;;7.1;4.3;;;;;;;-7.45;90.75781;953.3159;;;;
2022/01/12 05:53:05;;;;;;;10.3;6.1;;;;;;;-7.5;90.94531;953.3419;;;;
2022/01/12 05:55:32;;;;;;;12.2;7;;;;;;;-7.49;91.18555;953.3501;;;;
2022/01/12 05:57:57;;;;;;;10.9;7.2;;;;;;;-7.34;90.95703;953.3429;;;;
2022/01/12 06:00:26;;;;;;;11.7;6.8;;;;;;;-7.41;90.67871;953.383;;;;
2022/01/12 06:02:51;;;;;;;9.5;6.1;;;;;;;-7.49;90.26855;953.3918;;;;
2022/01/12 06:05:19;;;;;;;10.5;6;;;;;;;-7.34;89.59082;953.51;;;;
2022/01/12 06:07:44;;;;;;;9.8;5.9;;;;;;;-7.31;88.7627;953.5378;;;;
2022/01/12 06:10:10;;;;;;;8.6;5.4;;;;;;;-7.45;89.57617;953.6589;;;;
2022/01/12 06:12:35;;;;;;;9.5;5.4;;;;;;;-7.29;88.81055;953.6869;;;;
2022/01/12 06:15:14;;;;;;;13.2;7;;;;;;;-7.4;88.76758;953.7133;;;;
2022/01/12 06:17:39;;;;;;;10.6;6.4;;;;;;;-7.55;89.63379;953.7534;;;;
2022/01/12 06:20:04;;;;;;;11.5;6.5;;;;;;;-7.56;90.03418;953.7662;;;;
2022/01/12 06:22:34;;;;;;;12.5;6.6;;;;;;;-7.61;89.43359;953.8;;;;
2022/01/12 06:25:00;;;;;;;10.4;5.4;;;;;;;-7.66;89.15039;953.8464;;;;
2022/01/12 06:27:30;;;;;;;10.4;5.7;;;;;;;-7.27;87.79785;953.8539;;;;
2022/01/12 06:30:03;;;;;;;9.4;4.7;;;;;;;-7.19;86.6543;953.8407;;;;
2022/01/12 06:32:18;;;;;;;13.5;7.4;;;;;;;-7.1;86.21582;953.8235;;;;
2022/01/12 06:34:46;;;;;;;17.1;9.1;;;;;;;-7.22;87.05371;953.8837;;;;
2022/01/12 06:37:11;;;;;;;15.3;8.6;;;;;;;-7.34;87.9707;953.92;;;;
2022/01/12 06:39:37;;;;;;;22;12.7;;;;;;;-7.17;88.10352;953.9232;;;;
2022/01/12 06:42:02;;;;;;;18.6;10.2;;;;;;;-7.18;87.52148;953.8608;;;;
2022/01/12 06:44:27;;;;;;;11.1;6.8;;;;;;;-7.44;87.78418;953.7481;;;;
2022/01/12 06:46:56;;;;;;;11.2;6.8;;;;;;;-7.62;88.41309;953.8155;;;;
2022/01/12 06:49:20;;;;;;;11.3;6.2;;;;;;;-7.71;88.28418;953.7794;;;;
2022/01/12 06:51:47;;;;;;;10.6;6.6;;;;;;;-7.74;88.41113;953.718;;;;
2022/01/12 06:54:12;;;;;;;12.9;6.5;;;;;;;-7.78;88.63184;953.718;;;;
2022/01/12 06:56:38;;;;;;;11.4;6.3;;;;;;;-7.77;88.63379;953.7201;;;;
2022/01/12 06:59:03;;;;;;;18.5;9.5;;;;;;;-7.86;89.88184;953.7944;;;;
2022/01/12 07:01:32;;;;;;;20.9;10.6;;;;;;;-7.77;89.9541;953.6973;;;;
2022/01/12 07:04:03;;;;;;;19;10;;;;;;;-7.78;89.97656;953.7834;;;;
2022/01/12 07:06:36;;;;;;;18.6;9.4;;;;;;;-7.61;89.13867;953.8215;;;;
2022/01/12 07:09:00;;;;;;;16.4;9;;;;;;;-7.54;88.68359;953.8472;;;;
2022/01/12 07:11:29;;;;;;;16.4;8.3;;;;;;;-7.42;88.1377;953.9219;;;;
2022/01/12 07:13:54;;;;;;;19.4;9.4;;;;;;;-7.41;87.6709;953.8723;;;;
2022/01/12 07:16:28;;;;;;;16.4;7.8;;;;;;;-7.32;87.06641;953.9969;;;;
2022/01/12 07:19:00;;;;;;;14.9;7.8;;;;;;;-7.28;87.22656;954.0758;;;;
2022/01/12 07:21:28;;;;;;;14.9;8;;;;;;;-7.33;87.2832;954.1583;;;;
2022/01/12 07:23:55;;;;;;;19.8;8.9;;;;;;;-7.56;88.2207;954.2664;;;;
2022/01/12 07:26:23;;;;;;;19.5;9.8;;;;;;;-7.58;88.38965;954.3458;;;;
2022/01/12 07:28:53;;;;;;;16;8.3;;;;;;;-7.52;87.9541;954.4045;;;;
2022/01/12 07:31:17;;;;;;;12.7;7.8;;;;;;;-7.25;87.35547;954.492;;;;
2022/01/12 07:33:44;;;;;;;13.6;7.6;;;;;;;-7.14;86.28125;954.5614;;;;
2022/01/12 07:36:10;;;;;;;15.1;8.5;;;;;;;-6.84;85.51172;954.6031;;;;
2022/01/12 07:38:37;;;;;;;17;8.9;;;;;;;-6.87;85.10059;954.6925;;;;
2022/01/12 07:41:04;;;;;;;14.5;8;;;;;;;-6.78;84.71387;954.7943;;;;
2022/01/12 07:43:29;;;;;;;25.3;11.8;;;;;;;-6.77;85.11035;954.8273;;;;
2022/01/12 07:45:55;;;;;;;74.3;34.7;;;;;;;-6.96;85.39844;954.7803;;;;
2022/01/12 07:48:20;;;;;;;42.7;22.6;;;;;;;-6.87;86.19629;954.7761;;;;
2022/01/12 07:50:47;;;;;;;49.2;27;;;;;;;-6.09;85.56738;954.8397;;;;
2022/01/12 07:53:12;;;;;;;42.4;21.6;;;;;;;-4.79;84.71191;954.824;;;;
2022/01/12 07:55:40;;;;;;;32.2;15.7;;;;;;;-3.62;78.42285;954.9041;;;;
2022/01/12 07:58:05;;;;;;;15.5;9.1;;;;;;;-2.94;72.08984;954.8912;;;;
2022/01/12 08:00:31;;;;;;;8.2;5.2;;;;;;;-1.5;68.86426;954.875;;;;
2022/01/12 08:02:56;;;;;;;14.3;8.4;;;;;;;-0.87;64.26367;954.8527;;;;
2022/01/12 08:05:25;;;;;;;13.4;8.3;;;;;;;-0.07;60.46582;954.8883;;;;
2022/01/12 08:07:52;;;;;;;12.2;7.6;;;;;;;0.58;58.0498;954.842;;;;
2022/01/12 08:10:24;;;;;;;12.4;6.7;;;;;;;0.38;56.92969;954.8566;;;;
2022/01/12 08:12:52;;;;;;;14.9;10.7;;;;;;;-0.25;58.16895;954.7896;;;;
2022/01/12 08:15:17;;;;;;;13.6;8.3;;;;;;;-0.65;59.1709;954.8524;;;;
2022/01/12 08:17:47;;;;;;;17.5;11.3;;;;;;;-0.87;59.91699;954.868;;;;
2022/01/12 08:20:22;;;;;;;13.9;9.4;;;;;;;-0.55;58.94043;954.8544;;;;
2022/01/12 08:22:43;;;;;;;15;10.2;;;;;;;-0.87;59.75098;954.884;;;;
2022/01/12 08:25:15;;;;;;;14.6;9.5;;;;;;;0.71;56.41504;954.9253;;;;
2022/01/12 08:27:45;;;;;;;16.2;10.6;;;;;;;1.48;52.81934;954.9761;;;;
2022/01/12 08:30:19;;;;;;;18.4;12.3;;;;;;;1.68;51.94824;955.0066;;;;
2022/01/12 08:32:42;;;;;;;18.5;12.3;;;;;;;1.11;52.92773;954.9646;;;;
2022/01/12 08:35:11;;;;;;;18.3;11;;;;;;;2.09;50.64355;955.0125;;;;
2022/01/12 08:37:36;;;;;;;15.4;9;;;;;;;1.78;50.74219;955.0539;;;;
2022/01/12 08:40:03;;;;;;;14.8;8.3;;;;;;;1.06;53.48047;955.0386;;;;
2022/01/12 08:42:28;;;;;;;14;7.8;;;;;;;1.27;53.02637;955;;;;
2022/01/12 08:44:59;;;;;;;11.9;7;;;;;;;1.47;51.97949;955.0031;;;;
2022/01/12 08:47:20;;;;;;;8.8;5.7;;;;;;;1.57;53.65625;954.9807;;;;
2022/01/12 08:49:46;;;;;;;10.5;5.9;;;;;;;3.16;48.94336;955.0906;;;;
2022/01/12 08:52:12;;;;;;;7.7;5.4;;;;;;;3.08;48.53027;955.0381;;;;
2022/01/12 08:54:38;;;;;;;8.9;5.7;;;;;;;1.24;54.43066;955.1369;;;;
2022/01/12 08:57:03;;;;;;;15.3;8.9;;;;;;;0.31;56.41797;955.0419;;;;
2022/01/12 08:59:30;;;;;;;12;6.7;;;;;;;-1.85;64.25977;955.1153;;;;
2022/01/12 09:01:56;;;;;;;9.6;5.7;;;;;;;-2.02;65.40723;955.1981;;;;
2022/01/12 09:04:24;;;;;;;20.4;16.9;;;;;;;-2.94;69.71191;955.1431;;;;
2022/01/12 09:06:49;;;;;;;9.4;6.8;;;;;;;-2.85;69.94629;955.173;;;;
2022/01/12 09:09:14;;;;;;;10.3;6.9;;;;;;;-3.19;71.32617;955.196;;;;
2022/01/12 09:11:40;;;;;;;14.1;10;;;;;;;-3.33;72.66406;955.2242;;;;
2022/01/12 09:14:08;;;;;;;44.2;29.3;;;;;;;-3.61;74.18359;955.2729;;;;
2022/01/12 09:16:34;;;;;;;16.2;11.3;;;;;;;-3.5;74.52344;955.3408;;;;
2022/01/12 09:18:59;;;;;;;19.1;10.7;;;;;;;-3.47;75.125;955.2802;;;;
2022/01/12 09:21:28;;;;;;;34.2;20.7;;;;;;;-3.43;75.54004;955.3286;;;;
2022/01/12 09:23:51;;;;;;;37.5;26;;;;;;;-3.39;75.27246;955.3267;;;;
2022/01/12 09:26:20;;;;;;;25.4;17;;;;;;;-3.37;75.41895;955.3586;;;;
2022/01/12 09:28:45;;;;;;;13.2;8.4;;;;;;;-3.6;75.76465;955.3467;;;;
2022/01/12 09:31:13;;;;;;;9.9;6.7;;;;;;;-3.69;77.23926;955.3351;;;;
2022/01/12 09:33:39;;;;;;;13.7;8.2;;;;;;;-3.86;76.61133;955.3665;;;;
2022/01/12 09:36:06;;;;;;;15.5;8.8;;;;;;;-3.71;76.86035;955.2863;;;;
2022/01/12 09:38:33;;;;;;;11.5;7.4;;;;;;;-3.62;76.9541;955.3212;;;;
2022/01/12 09:41:02;;;;;;;10.3;5.9;;;;;;;-3.62;77.41797;955.2793;;;;
2022/01/12 09:43:30;;;;;;;11.4;7.7;;;;;;;-3.42;77.72949;955.2587;;;;
2022/01/12 09:45:52;;;;;;;10.5;6.8;;;;;;;-3.44;76.27832;955.1526;;;;
2022/01/12 09:48:18;;;;;;;8.7;5.5;;;;;;;-3.11;75.87695;955.2825;;;;
2022/01/12 09:50:43;;;;;;;16.6;8.2;;;;;;;-3.12;75.89551;955.2681;;;;
2022/01/12 09:53:09;;;;;;;11.6;7.1;;;;;;;-3.06;75.75195;955.0974;;;;
2022/01/12 09:55:35;;;;;;;12.4;6.7;;;;;;;-3.03;76.39746;955.139;;;;
2022/01/12 09:58:02;;;;;;;11.9;8;;;;;;;-2.97;75.86816;955.1337;;;;
2022/01/12 10:00:28;;;;;;;8.1;4.6;;;;;;;-2.79;74.77246;955.0798;;;;
2022/01/12 10:02:56;;;;;;;9.2;4.5;;;;;;;-2.77;74.03418;955.0742;;;;
2022/01/12 10:05:22;;;;;;;8.6;4.7;;;;;;;-2.61;73.83984;955.0159;;;;
2022/01/12 10:07:47;;;;;;;9.8;5.8;;;;;;;-2.49;74.66895;955.0578;;;;
2022/01/12 10:10:14;;;;;;;11.4;8.4;;;;;;;-2.41;75.10449;954.9296;;;;
2022/01/12 10:12:39;;;;;;;12.5;7.7;;;;;;;-2.57;74.94336;954.8808;;;;
2022/01/12 10:15:10;;;;;;;31.2;18.7;;;;;;;-2.68;75.67676;954.9631;;;;
2022/01/12 10:17:39;;;;;;;45.1;28.3;;;;;;;-2.46;76.64648;954.9356;;;;
2022/01/12 10:20:13;;;;;;;59.1;31.8;;;;;;;-2.33;77.67773;954.8014;;;;
2022/01/12 10:22:43;;;;;;;22.7;12.9;;;;;;;-2.3;77.76172;954.6808;;;;
2022/01/12 10:25:08;;;;;;;31.7;20.9;;;;;;;-2.26;76.76172;954.6358;;;;
2022/01/12 10:27:37;;;;;;;17.9;11.5;;;;;;;-2.33;76.80273;954.5597;;;;
2022/01/12 10:30:06;;;;;;;13;8.4;;;;;;;-2.22;74.33105;954.4816;;;;
2022/01/12 10:32:33;;;;;;;7;4.7;;;;;;;-2.25;74.81152;954.4281;;;;
2022/01/12 10:35:00;;;;;;;10;5.6;;;;;;;-2.13;75.12207;954.4291;;;;
2022/01/12 10:37:27;;;;;;;22.5;9.7;;;;;;;-1.84;77.06934;954.2233;;;;
2022/01/12 10:39:52;;;;;;;20.5;8;;;;;;;-1.68;76.58887;954.3414;;;;
2022/01/12 10:42:17;;;;;;;9.1;4.4;;;;;;;-1.47;71.55469;954.3678;;;;
2022/01/12 10:44:43;;;;;;;10.7;5.5;;;;;;;-1.3;72.59375;954.3408;;;;
2022/01/12 10:47:08;;;;;;;9.9;4.9;;;;;;;-1.24;70.81641;954.331;;;;
2022/01/12 10:49:36;;;;;;;8.9;4.3;;;;;;;-1.38;68.84863;954.2166;;;;
2022/01/12 10:52:01;;;;;;;6.8;4;;;;;;;-1.2;69.81152;954.3004;;;;
2022/01/12 10:54:26;;;;;;;10.8;5.8;;;;;;;-1.27;69.55762;954.3117;;;;
2022/01/12 10:56:52;;;;;;;13.8;7.3;;;;;;;-0.98;70.14844;954.3024;;;;
2022/01/12 10:59:17;;;;;;;11.9;4.9;;;;;;;-1.06;69.89063;954.2065;;;;
2022/01/12 11:01:45;;;;;;;8.8;4.2;;;;;;;-0.94;70.8125;954.2405;;;;
2022/01/12 11:04:10;;;;;;;9.9;4.9;;;;;;;-0.6;70.30078;954.2288;;;;
2022/01/12 11:06:39;;;;;;;7.4;5;;;;;;;-0.52;68.91309;954.1897;;;;
2022/01/12 11:09:04;;;;;;;14.6;6.6;;;;;;;-0.28;69.1416;954.1252;;;;
2022/01/12 11:11:29;;;;;;;17;8;;;;;;;-0.43;69.06152;954.0845;;;;
2022/01/12 11:13:55;;;;;;;7.3;4.3;;;;;;;-0.7;65.69141;954.0862;;;;
2022/01/12 11:16:21;;;;;;;11.3;6;;;;;;;-0.81;67.85547;954.0474;;;;
2022/01/12 11:18:46;;;;;;;8.8;6;;;;;;;-0.53;69.88867;954.0185;;;;
2022/01/12 11:21:12;;;;;;;6.1;3.9;;;;;;;-0.3;67.96875;953.9379;;;;
2022/01/12 11:23:37;;;;;;;7.1;5.1;;;;;;;-0.23;68.03613;953.9254;;;;
2022/01/12 11:26:03;;;;;;;7.6;4.6;;;;;;;-0.16;67.88086;953.8678;;;;
2022/01/12 11:28:30;;;;;;;6.8;3.8;;;;;;;-0.03;66.01953;953.9127;;;;
2022/01/12 11:30:57;;;;;;;4;2.5;;;;;;;0.04;64.3252;953.8495;;;;
2022/01/12 11:33:23;;;;;;;4.7;2.7;;;;;;;0.08;63.2959;953.8184;;;;
2022/01/12 11:35:49;;;;;;;9.3;3;;;;;;;0.01;64.27637;953.785;;;;
2022/01/12 11:38:15;;;;;;;5.9;3.3;;;;;;;0.01;64.86523;953.7257;;;;
2022/01/12 11:40:40;;;;;;;5.5;2.9;;;;;;;0.03;64.32422;953.6523;;;;
2022/01/12 11:43:05;;;;;;;3.4;2.7;;;;;;;0.02;64.69043;953.6229;;;;
2022/01/12 11:45:30;;;;;;;4.5;3.1;;;;;;;0.19;65.15137;953.6006;;;;
2022/01/12 11:47:56;;;;;;;5.6;3.4;;;;;;;0.17;64.09961;953.5631;;;;
2022/01/12 11:50:22;;;;;;;14.7;4.4;;;;;;;0.11;64.87109;953.5947;;;;
2022/01/12 11:52:48;;;;;;;7.6;3.9;;;;;;;0.38;64.05469;953.5663;;;;
2022/01/12 11:55:16;;;;;;;6.5;3.9;;;;;;;0.46;64.20996;953.558;;;;
2022/01/12 11:57:42;;;;;;;7.5;3.6;;;;;;;0.45;64.38672;953.5112;;;;
2022/01/12 12:00:07;;;;;;;7.6;3.2;;;;;;;0.41;62.90039;953.5156;;;;
2022/01/12 12:02:35;;;;;;;6.7;3.1;;;;;;;0.51;62.84668;953.5021;;;;
2022/01/12 12:05:03;;;;;;;5.7;2.8;;;;;;;0.6;62.79297;953.5813;;;;
2022/01/12 12:07:28;;;;;;;4.5;2.7;;;;;;;0.83;62.30176;953.6144;;;;
2022/01/12 12:09:56;;;;;;;2.7;1.6;;;;;;;0.76;60.65234;953.6473;;;;
2022/01/12 12:12:19;;;;;;;2.9;1.8;;;;;;;0.83;59.1543;953.7643;;;;
2022/01/12 12:14:44;;;;;;;2.1;1.6;;;;;;;0.93;60.47461;953.7888;;;;
2022/01/12 12:17:15;;;;;;;2.9;2;;;;;;;1.07;59.71387;953.8347;;;;
2022/01/12 12:19:44;;;;;;;2.3;1.8;;;;;;;1.1;59.81836;953.8855;;;;
2022/01/12 12:22:09;;;;;;;3;2;;;;;;;1.17;59.79492;954.0514;;;;
2022/01/12 12:24:36;;;;;;;2.5;2.1;;;;;;;1.19;59.42969;953.955;;;;
2022/01/12 12:27:01;;;;;;;4.1;2.8;;;;;;;1.14;59.92383;954.0396;;;;
2022/01/12 12:29:28;;;;;;;6.8;4.1;;;;;;;1.17;64.51953;954.1189;;;;
2022/01/12 12:31:53;;;;;;;5.5;4;;;;;;;1.08;66.20313;954.1794;;;;
2022/01/12 12:34:21;;;;;;;6.9;4.6;;;;;;;0.88;67.63477;954.118;;;;
2022/01/12 12:36:46;;;;;;;8.6;4.9;;;;;;;0.52;70.1084;954.1038;;;;
2022/01/12 12:39:14;;;;;;;6;4.7;;;;;;;0.88;69.65527;954.038;;;;
2022/01/12 12:41:44;;;;;;;7.5;5.2;;;;;;;0.89;69.76855;954.1158;;;;
2022/01/12 12:44:09;;;;;;;7.3;4.9;;;;;;;0.91;69.97168;954.1345;;;;
2022/01/12 12:46:34;;;;;;;9;5.6;;;;;;;1.01;69.82129;954.1429;;;;
2022/01/12 12:49:00;;;;;;;7.4;5.2;;;;;;;0.61;70.61426;954.1231;;;;
2022/01/12 12:51:28;;;;;;;9.7;6.2;;;;;;;0.91;69.45898;954.1057;;;;
2022/01/12 12:53:56;;;;;;;8.1;5.4;;;;;;;0.84;69.1582;954.1057;;;;
2022/01/12 12:56:20;;;;;;;9.1;5.5;;;;;;;0.95;68.75195;954.122;;;;
2022/01/12 12:58:46;;;;;;;6.9;5;;;;;;;1.21;68.36816;954.1236;;;;
2022/01/12 13:01:11;;;;;;;8.7;5.6;;;;;;;1.05;68.8457;954.0517;;;;
2022/01/12 13:03:36;;;;;;;8.4;5.2;;;;;;;0.83;68.85352;954.0804;;;;
2022/01/12 13:06:02;;;;;;;8.5;5.3;;;;;;;1.18;68.87891;954.0719;;;;
2022/01/12 13:08:27;;;;;;;8.4;5.3;;;;;;;0.91;68.25293;954.0586;;;;
2022/01/12 13:10:52;;;;;;;7.5;5.1;;;;;;;1.04;68.08398;954.0201;;;;
2022/01/12 13:13:17;;;;;;;13.3;5.1;;;;;;;1.03;67.78223;953.9885;;;;
2022/01/12 13:15:50;;;;;;;7.1;4.6;;;;;;;1.06;67.90918;954.0672;;;;
2022/01/12 13:18:20;;;;;;;8.3;5.6;;;;;;;0.93;68.89258;954.0748;;;;
2022/01/12 13:23:15;;;;;;;17.2;9.1;;;;;;;0.88;70.60352;954.0756;;;;
2022/01/12 13:25:40;;;;;;;8.5;5.4;;;;;;;1.02;69.4873;954.0424;;;;
2022/01/12 13:28:08;;;;;;;12.7;6.6;;;;;;;1.08;70.21289;954.1721;;;;
2022/01/12 13:30:35;;;;;;;18.9;8.8;;;;;;;1.32;69.21387;954.1973;;;;
2022/01/12 13:33:00;;;;;;;12.7;7.5;;;;;;;1.42;68.73828;954.2037;;;;
2022/01/12 13:35:31;;;;;;;9.8;6;;;;;;;1.51;68.96582;954.2787;;;;
2022/01/12 13:37:59;;;;;;;7.9;5.5;;;;;;;1.82;67.11328;954.3408;;;;
2022/01/12 13:40:24;;;;;;;12.9;7.8;;;;;;;2.13;66.25586;954.3019;;;;
2022/01/12 13:42:53;;;;;;;7.1;4.6;;;;;;;2.45;64.18848;954.258;;;;
2022/01/12 13:45:19;;;;;;;8.7;5.8;;;;;;;3.21;62.46289;954.3391;;;;
2022/01/12 13:47:45;;;;;;;12.2;7.2;;;;;;;4.39;58.98926;954.331;;;;
2022/01/12 13:50:17;;;;;;;7.7;5.2;;;;;;;4.27;57.91406;954.2576;;;;
2022/01/12 13:52:41;;;;;;;8;5.3;;;;;;;4.84;55.70605;954.3264;;;;
2022/01/12 13:55:13;;;;;;;8.3;5.2;;;;;;;5.87;53.91895;954.3586;;;;
2022/01/12 13:57:37;;;;;;;11.3;6;;;;;;;7.8;48.66016;954.4378;;;;
2022/01/12 14:00:03;;;;;;;8;5.8;;;;;;;8.72;45.94434;954.3633;;;;
2022/01/12 14:02:30;;;;;;;8.4;5.4;;;;;;;9.29;44.53613;954.3887;;;;
2022/01/12 14:05:04;;;;;;;9.1;5.5;;;;;;;11.49;39.86621;954.3223;;;;
2022/01/12 14:07:21;;;;;;;7.6;5.4;;;;;;;11.19;38.88965;954.4291;;;;
2022/01/12 14:09:48;;;;;;;8.4;5.3;;;;;;;12.47;37.18164;954.3797;;;;
2022/01/12 14:12:13;;;;;;;7.5;5.3;;;;;;;11.95;37.16016;954.4562;;;;
2022/01/12 14:14:41;;;;;;;7.8;5.3;;;;;;;10.2;40.04395;954.4501;;;;
2022/01/12 14:17:12;;;;;;;8.5;5.4;;;;;;;10.15;40.81641;954.4628;;;;
2022/01/12 14:19:37;;;;;;;7.7;5.2;;;;;;;9.23;41.45703;954.4256;;;;
2022/01/12 14:22:03;;;;;;;9.3;5.8;;;;;;;7.44;45.49023;954.4699;;;;
2022/01/12 14:24:32;;;;;;;9.8;7.2;;;;;;;5.96;49.07324;954.522;;;;
2022/01/12 14:26:57;;;;;;;10.2;8;;;;;;;4.56;54.18164;954.6061;;;;
2022/01/12 14:29:23;;;;;;;10.4;6.6;;;;;;;3.82;56.71777;954.6288;;;;
2022/01/12 14:31:49;;;;;;;8.8;6.4;;;;;;;2.99;59.89453;954.6376;;;;
2022/01/12 14:34:17;;;;;;;10.6;7.1;;;;;;;2.8;62.2334;954.5833;;;;
2022/01/12 14:36:42;;;;;;;10.1;6.5;;;;;;;3.08;61.60156;954.5374;;;;
2022/01/12 14:39:08;;;;;;;9.3;6.6;;;;;;;4.23;57.68359;954.5223;;;;
2022/01/12 14:41:37;;;;;;;9.3;6;;;;;;;4.1;57.1709;954.5246;;;;
2022/01/12 14:44:01;;;;;;;9.8;6.5;;;;;;;4.24;57.30273;954.5161;;;;
2022/01/12 14:46:29;;;;;;;8.9;6.1;;;;;;;4.23;56.96582;954.5078;;;;
2022/01/12 14:48:54;;;;;;;9;6.6;;;;;;;3.79;57.96191;954.5781;;;;
2022/01/12 14:51:21;;;;;;;9.5;6.4;;;;;;;3.65;58.53906;954.5568;;;;
2022/01/12 14:53:45;;;;;;;8.9;6.4;;;;;;;3.23;59.22168;954.6594;;;;
2022/01/12 14:56:13;;;;;;;8.9;6.5;;;;;;;2.84;60.2998;954.7166;;;;
2022/01/12 14:58:40;;;;;;;9.2;6.8;;;;;;;2.61;61.4668;954.6371;;;;
2022/01/12 15:01:07;;;;;;;10.2;6.4;;;;;;;2.31;62.38574;954.6674;;;;
2022/01/12 15:03:32;;;;;;;10.8;7.1;;;;;;;1.7;65.03711;954.6509;;;;
2022/01/12 15:06:04;;;;;;;13.8;9.6;;;;;;;1.04;68.28418;954.6735;;;;
2022/01/12 15:08:24;;;;;;;17;10.3;;;;;;;0.6;69.9209;954.7144;;;;
2022/01/12 15:10:53;;;;;;;14.1;9.7;;;;;;;0.3;71.24121;954.7675;;;;
2022/01/12 15:13:25;;;;;;;15;9.5;;;;;;;0.26;71.62695;954.7921;;;;
2022/01/12 15:15:47;;;;;;;13.8;9.7;;;;;;;0.04;72.06836;954.7191;;;;
2022/01/12 15:18:14;;;;;;;16.1;9.7;;;;;;;-0.14;72.90527;954.7363;;;;
2022/01/12 15:20:39;;;;;;;14;9;;;;;;;-0.39;73.91895;954.7797;;;;
2022/01/12 15:23:08;;;;;;;11.2;8.3;;;;;;;-0.64;74.58789;954.6957;;;;